createdAt,value
2016-07-15T00:00:08.436Z,0
2016-07-15T00:01:08.440Z,0
2016-07-15T00:02:08.417Z,0
2016-07-15T00:03:07.711Z,0
2016-07-15T00:04:07.689Z,0
2016-07-15T00:05:08.375Z,0
2016-07-15T00:06:09.086Z,0
2016-07-15T00:07:07.661Z,0
2016-07-15T00:08:06.926Z,0
2016-07-15T00:09:06.930Z,0
2016-07-15T00:10:09.029Z,0
2016-07-15T00:11:08.311Z,0
2016-07-15T00:12:08.307Z,0
2016-07-15T00:13:07.581Z,0
2016-07-15T00:14:08.986Z,0
2016-07-15T00:15:09.678Z,0
2016-07-15T00:16:08.252Z,0
2016-07-15T00:17:07.539Z,0
2016-07-15T00:18:07.514Z,0
2016-07-15T00:19:08.210Z,0
2016-07-15T00:20:07.486Z,0
2016-07-15T00:21:07.491Z,0
2016-07-15T00:22:08.166Z,0
2016-07-15T00:23:08.158Z,0
2016-07-15T00:24:07.445Z,0
2016-07-15T00:25:08.128Z,0
2016-07-15T00:26:08.133Z,0
2016-07-15T00:27:08.107Z,0
2016-07-15T00:28:07.397Z,0
2016-07-15T00:29:08.096Z,0
2016-07-15T00:30:08.771Z,0
2016-07-15T00:31:08.060Z,0
2016-07-15T00:32:07.341Z,0
2016-07-15T00:33:08.060Z,0
2016-07-15T00:34:07.324Z,0
2016-07-15T00:35:07.362Z,0
2016-07-15T00:36:07.295Z,0
2016-07-15T00:37:07.992Z,0
2016-07-15T00:38:07.265Z,0
2016-07-15T00:39:07.256Z,0
2016-07-15T00:40:08.669Z,0
2016-07-15T00:41:07.229Z,0
2016-07-15T00:42:07.215Z,0
2016-07-15T00:43:07.250Z,0
2016-07-15T00:44:07.900Z,0
2016-07-15T00:45:07.885Z,0
2016-07-15T00:46:07.887Z,0
2016-07-15T00:47:07.857Z,0
2016-07-15T00:48:07.861Z,0
2016-07-15T00:49:09.265Z,0
2016-07-15T00:50:07.827Z,0
2016-07-15T00:51:08.526Z,0
2016-07-15T00:52:06.399Z,0
2016-07-15T00:53:07.790Z,0
2016-07-15T00:54:08.482Z,0
2016-07-15T00:55:08.467Z,0
2016-07-15T00:56:07.038Z,0
2016-07-15T00:57:08.443Z,0
2016-07-15T00:58:07.725Z,0
2016-07-15T00:59:08.415Z,0
2016-07-15T01:00:06.307Z,0
2016-07-15T01:01:06.280Z,0
2016-07-15T01:02:07.675Z,0
2016-07-15T01:03:08.370Z,0
2016-07-15T01:04:06.944Z,0
2016-07-15T01:05:07.654Z,0
2016-07-15T01:06:08.331Z,0
2016-07-15T01:07:08.314Z,0
2016-07-15T01:08:07.610Z,0
2016-07-15T01:09:06.177Z,0
2016-07-15T01:10:07.589Z,0
2016-07-15T01:11:06.151Z,0
2016-07-15T01:12:07.552Z,0
2016-07-15T01:13:07.539Z,0
2016-07-15T01:14:06.822Z,0
2016-07-15T01:15:06.105Z,0
2016-07-15T01:16:06.793Z,0
2016-07-15T01:17:06.786Z,0
2016-07-15T01:18:07.485Z,0
2016-07-15T01:19:07.462Z,0
2016-07-15T01:20:06.761Z,0
2016-07-15T01:21:07.446Z,0
2016-07-15T01:22:07.463Z,0
2016-07-15T01:23:08.135Z,0
2016-07-15T01:24:08.107Z,0
2016-07-15T01:25:06.708Z,0
2016-07-15T01:26:06.672Z,0
2016-07-15T01:27:05.970Z,0
2016-07-15T01:28:08.056Z,0
2016-07-15T01:29:05.928Z,0
2016-07-15T01:30:06.628Z,0
2016-07-15T01:31:06.613Z,0
2016-07-15T01:32:06.611Z,0
2016-07-15T01:33:07.306Z,0
2016-07-15T01:34:07.288Z,0
2016-07-15T01:35:06.568Z,0
2016-07-15T01:36:07.971Z,0
2016-07-15T01:37:07.246Z,0
2016-07-15T01:38:06.523Z,0
2016-07-15T01:39:06.511Z,0
2016-07-15T01:40:06.502Z,0
2016-07-15T01:41:07.900Z,0
2016-07-15T01:42:07.881Z,0
2016-07-15T01:43:07.884Z,0
2016-07-15T01:44:07.865Z,0
2016-07-15T01:45:08.557Z,0
2016-07-15T01:46:06.430Z,0
2016-07-15T01:47:06.409Z,0
2016-07-15T01:48:07.826Z,0
2016-07-15T01:49:07.098Z,0
2016-07-15T01:50:06.371Z,0
2016-07-15T01:51:05.657Z,0
2016-07-15T01:52:07.058Z,0
2016-07-15T01:53:07.050Z,0
2016-07-15T01:54:07.049Z,0
2016-07-15T01:55:06.308Z,0
2016-07-15T01:56:07.009Z,0
2016-07-15T01:57:05.583Z,0
2016-07-15T01:58:07.697Z,0
2016-07-15T01:59:06.970Z,0
2016-07-15T02:00:06.249Z,0
2016-07-15T02:01:06.954Z,0
2016-07-15T02:02:08.346Z,0
2016-07-15T02:03:06.942Z,0
2016-07-15T02:04:06.217Z,0
2016-07-15T02:05:06.898Z,0
2016-07-15T02:06:06.889Z,0
2016-07-15T02:07:06.874Z,0
2016-07-15T02:08:06.863Z,0
2016-07-15T02:09:06.145Z,0
2016-07-15T02:10:05.415Z,0
2016-07-15T02:11:06.117Z,0
2016-07-15T02:12:06.814Z,0
2016-07-15T02:13:07.508Z,0
2016-07-15T02:14:06.807Z,0
2016-07-15T02:15:06.774Z,0
2016-07-15T02:16:06.763Z,0
2016-07-15T02:17:06.755Z,0
2016-07-15T02:18:06.029Z,0
2016-07-15T02:19:06.017Z,0
2016-07-15T02:20:06.740Z,0
2016-07-15T02:21:06.707Z,0
2016-07-15T02:22:06.685Z,0
2016-07-15T02:23:05.974Z,0
2016-07-15T02:24:06.666Z,0
2016-07-15T02:25:06.646Z,0
2016-07-15T02:26:06.644Z,0
2016-07-15T02:27:05.922Z,0
2016-07-15T02:28:05.957Z,0
2016-07-15T02:29:05.193Z,0
2016-07-15T02:30:06.785Z,0
2016-07-15T02:31:06.585Z,0
2016-07-15T02:32:05.858Z,0
2016-07-15T02:33:05.896Z,0
2016-07-15T02:34:06.555Z,0
2016-07-15T02:35:06.537Z,0
2016-07-15T02:36:05.829Z,0
2016-07-15T02:37:07.207Z,0
2016-07-15T02:38:05.786Z,0
2016-07-15T02:39:05.067Z,0
2016-07-15T02:40:07.178Z,0
2016-07-15T02:41:06.493Z,0
2016-07-15T02:42:07.142Z,0
2016-07-15T02:43:06.433Z,0
2016-07-15T02:44:06.418Z,0
2016-07-15T02:45:06.399Z,0
2016-07-15T02:46:04.976Z,0
2016-07-15T02:47:05.696Z,0
2016-07-15T02:48:06.369Z,0
2016-07-15T02:49:04.944Z,0
2016-07-15T02:50:04.935Z,0
2016-07-15T02:51:04.916Z,0
2016-07-15T02:52:06.322Z,0
2016-07-15T02:53:06.308Z,0
2016-07-15T02:54:07.004Z,0
2016-07-15T02:55:06.986Z,0
2016-07-15T02:56:06.282Z,0
2016-07-15T02:57:06.976Z,0
2016-07-15T02:58:07.666Z,0
2016-07-15T02:59:05.525Z,0
2016-07-15T03:00:06.926Z,0
2016-07-15T03:01:06.935Z,0
2016-07-15T03:02:06.898Z,0
2016-07-15T03:03:06.194Z,0
2016-07-15T03:04:06.960Z,0
2016-07-15T03:05:06.161Z,0
2016-07-15T03:06:06.152Z,0
2016-07-15T03:07:06.152Z,0
2016-07-15T03:08:05.423Z,0
2016-07-15T03:09:05.399Z,0
2016-07-15T03:10:05.392Z,0
2016-07-15T03:11:06.090Z,0
2016-07-15T03:12:06.777Z,0
2016-07-15T03:13:04.655Z,0
2016-07-15T03:14:05.338Z,0
2016-07-15T03:15:05.332Z,0
2016-07-15T03:16:06.734Z,0
2016-07-15T03:17:04.617Z,0
2016-07-15T03:18:06.004Z,0
2016-07-15T03:19:05.287Z,0
2016-07-15T03:20:05.271Z,0
2016-07-15T03:21:05.260Z,0
2016-07-15T03:22:05.239Z,0
2016-07-15T03:23:05.943Z,0
2016-07-15T03:24:05.220Z,0
2016-07-15T03:25:04.499Z,0
2016-07-15T03:26:05.916Z,0
2016-07-15T03:27:05.899Z,0
2016-07-15T03:28:05.914Z,0
2016-07-15T03:29:06.566Z,0
2016-07-15T03:30:05.846Z,0
2016-07-15T03:31:05.841Z,0
2016-07-15T03:32:06.538Z,0
2016-07-15T03:33:05.122Z,0
2016-07-15T03:34:05.809Z,0
2016-07-15T03:35:05.786Z,0
2016-07-15T03:36:06.491Z,0
2016-07-15T03:37:05.781Z,0
2016-07-15T03:38:05.056Z,0
2016-07-15T03:39:05.029Z,0
2016-07-15T03:40:05.729Z,0
2016-07-15T03:41:04.303Z,0
2016-07-15T03:42:04.996Z,0
2016-07-15T03:43:04.991Z,0
2016-07-15T03:44:04.267Z,0
2016-07-15T03:45:04.973Z,0
2016-07-15T03:46:04.957Z,5
2016-07-15T03:47:05.657Z,5
2016-07-15T03:48:04.218Z,5
2016-07-15T03:49:05.622Z,5
2016-07-15T03:50:06.325Z,5
2016-07-15T03:51:04.186Z,5
2016-07-15T03:52:06.285Z,5
2016-07-15T03:53:04.161Z,5
2016-07-15T03:54:04.863Z,5
2016-07-15T03:55:04.131Z,5
2016-07-15T03:56:04.839Z,5
2016-07-15T03:57:04.822Z,5
2016-07-15T03:58:05.516Z,5
2016-07-15T03:59:05.500Z,5
2016-07-15T04:00:04.774Z,10
2016-07-15T04:01:04.768Z,10
2016-07-15T04:02:04.053Z,10
2016-07-15T04:03:05.449Z,10
2016-07-15T04:04:06.143Z,5
2016-07-15T04:05:06.145Z,5
2016-07-15T04:06:04.715Z,5
2016-07-15T04:07:05.407Z,10
2016-07-15T04:08:06.119Z,10
2016-07-15T04:09:04.675Z,10
2016-07-15T04:10:04.674Z,10
2016-07-15T04:11:04.643Z,10
2016-07-15T04:12:03.931Z,10
2016-07-15T04:13:04.621Z,10
2016-07-15T04:14:06.032Z,10
2016-07-15T04:15:04.596Z,10
2016-07-15T04:16:05.996Z,10
2016-07-15T04:17:04.571Z,15
2016-07-15T04:18:05.969Z,15
2016-07-15T04:19:03.850Z,15
2016-07-15T04:20:04.538Z,15
2016-07-15T04:21:04.518Z,15
2016-07-15T04:22:05.214Z,15
2016-07-15T04:23:05.917Z,15
2016-07-15T04:24:04.487Z,15
2016-07-15T04:25:03.769Z,15
2016-07-15T04:26:05.871Z,20
2016-07-15T04:27:05.154Z,20
2016-07-15T04:28:04.436Z,20
2016-07-15T04:29:03.712Z,20
2016-07-15T04:30:03.912Z,20
2016-07-15T04:31:03.703Z,20
2016-07-15T04:32:04.391Z,20
2016-07-15T04:33:05.796Z,25
2016-07-15T04:34:04.366Z,25
2016-07-15T04:35:05.065Z,25
2016-07-15T04:36:04.346Z,25
2016-07-15T04:37:05.754Z,30
2016-07-15T04:38:05.732Z,30
2016-07-15T04:39:04.305Z,30
2016-07-15T04:40:04.288Z,35
2016-07-15T04:41:05.693Z,35
2016-07-15T04:42:05.707Z,35
2016-07-15T04:43:05.679Z,35
2016-07-15T04:44:03.553Z,40
2016-07-15T04:45:04.961Z,40
2016-07-15T04:46:04.933Z,40
2016-07-15T04:47:04.918Z,45
2016-07-15T04:48:05.620Z,45
2016-07-15T04:49:05.614Z,45
2016-07-15T04:50:05.588Z,45
2016-07-15T04:51:03.448Z,45
2016-07-15T04:52:04.861Z,50
2016-07-15T04:53:04.895Z,50
2016-07-15T04:54:03.418Z,45
2016-07-15T04:55:04.818Z,45
2016-07-15T04:56:04.823Z,45
2016-07-15T04:57:04.792Z,45
2016-07-15T04:58:04.088Z,50
2016-07-15T04:59:04.056Z,55
2016-07-15T05:00:04.056Z,55
2016-07-15T05:01:04.744Z,55
2016-07-15T05:02:04.733Z,60
2016-07-15T05:03:04.009Z,60
2016-07-15T05:04:04.705Z,60
2016-07-15T05:05:05.406Z,60
2016-07-15T05:06:03.268Z,60
2016-07-15T05:07:03.258Z,60
2016-07-15T05:08:03.956Z,60
2016-07-15T05:09:03.229Z,65
2016-07-15T05:10:03.927Z,65
2016-07-15T05:11:03.209Z,70
2016-07-15T05:12:03.194Z,70
2016-07-15T05:13:04.606Z,75
2016-07-15T05:14:03.167Z,75
2016-07-15T05:15:03.161Z,70
2016-07-15T05:16:05.274Z,70
2016-07-15T05:17:03.141Z,65
2016-07-15T05:18:03.133Z,65
2016-07-15T05:19:04.544Z,65
2016-07-15T05:20:05.234Z,60
2016-07-15T05:21:04.505Z,60
2016-07-15T05:22:03.780Z,65
2016-07-15T05:23:04.503Z,60
2016-07-15T05:24:05.197Z,65
2016-07-15T05:25:03.756Z,60
2016-07-15T05:26:04.460Z,60
2016-07-15T05:27:03.733Z,60
2016-07-15T05:28:03.728Z,55
2016-07-15T05:29:03.708Z,55
2016-07-15T05:30:04.395Z,65
2016-07-15T05:31:04.400Z,75
2016-07-15T05:32:02.957Z,80
2016-07-15T05:33:03.655Z,80
2016-07-15T05:34:04.351Z,75
2016-07-15T05:35:05.052Z,75
2016-07-15T05:36:03.618Z,85
2016-07-15T05:37:04.316Z,90
2016-07-15T05:38:03.595Z,85
2016-07-15T05:39:04.295Z,85
2016-07-15T05:40:03.574Z,90
2016-07-15T05:41:03.574Z,90
2016-07-15T05:42:04.965Z,90
2016-07-15T05:43:03.537Z,95
2016-07-15T05:44:04.237Z,95
2016-07-15T05:45:04.216Z,95
2016-07-15T05:46:04.213Z,95
2016-07-15T05:47:04.901Z,95
2016-07-15T05:48:04.187Z,95
2016-07-15T05:49:03.468Z,100
2016-07-15T05:50:04.866Z,100
2016-07-15T05:51:04.148Z,100
2016-07-15T05:52:04.850Z,105
2016-07-15T05:53:05.540Z,115
2016-07-15T05:54:04.115Z,105
2016-07-15T05:55:03.402Z,110
2016-07-15T05:56:04.089Z,115
2016-07-15T05:57:03.375Z,115
2016-07-15T05:58:04.064Z,120
2016-07-15T05:59:04.074Z,120
2016-07-15T06:00:04.051Z,115
2016-07-15T06:01:04.041Z,110
2016-07-15T06:02:04.029Z,110
2016-07-15T06:03:03.305Z,110
2016-07-15T06:04:03.299Z,115
2016-07-15T06:05:03.992Z,125
2016-07-15T06:06:03.979Z,125
2016-07-15T06:07:03.267Z,125
2016-07-15T06:08:05.372Z,130
2016-07-15T06:09:02.534Z,140
2016-07-15T06:10:03.224Z,135
2016-07-15T06:11:03.228Z,135
2016-07-15T06:12:04.613Z,125
2016-07-15T06:13:03.906Z,125
2016-07-15T06:14:03.903Z,125
2016-07-15T06:15:04.580Z,125
2016-07-15T06:16:03.888Z,120
2016-07-15T06:17:03.144Z,120
2016-07-15T06:18:02.432Z,110
2016-07-15T06:19:02.434Z,115
2016-07-15T06:20:03.814Z,130
2016-07-15T06:21:03.112Z,145
2016-07-15T06:22:03.797Z,170
2016-07-15T06:23:03.789Z,180
2016-07-15T06:24:02.357Z,170
2016-07-15T06:25:02.349Z,160
2016-07-15T06:26:03.050Z,145
2016-07-15T06:27:03.032Z,135
2016-07-15T06:28:04.436Z,135
2016-07-15T06:29:02.356Z,135
2016-07-15T06:30:03.918Z,125
2016-07-15T06:31:02.995Z,130
2016-07-15T06:32:03.698Z,130
2016-07-15T06:33:02.972Z,135
2016-07-15T06:34:05.082Z,125
2016-07-15T06:35:03.650Z,130
2016-07-15T06:36:02.943Z,125
2016-07-15T06:37:04.408Z,125
2016-07-15T06:38:03.641Z,110
2016-07-15T06:39:03.622Z,110
2016-07-15T06:40:02.950Z,115
2016-07-15T06:41:02.167Z,140
2016-07-15T06:42:04.285Z,150
2016-07-15T06:43:04.279Z,210
2016-07-15T06:44:03.550Z,220
2016-07-15T06:45:02.132Z,195
2016-07-15T06:46:02.116Z,255
2016-07-15T06:47:04.237Z,265
2016-07-15T06:48:03.509Z,240
2016-07-15T06:49:04.212Z,220
2016-07-15T06:50:02.794Z,185
2016-07-15T06:51:03.533Z,205
2016-07-15T06:52:02.824Z,160
2016-07-15T06:53:04.241Z,175
2016-07-15T06:54:03.492Z,195
2016-07-15T06:55:04.171Z,195
2016-07-15T06:56:03.429Z,180
2016-07-15T06:57:03.424Z,180
2016-07-15T06:58:03.463Z,175
2016-07-15T06:59:04.817Z,180
2016-07-15T07:00:03.394Z,175
2016-07-15T07:01:01.959Z,175
2016-07-15T07:02:03.363Z,205
2016-07-15T07:03:01.941Z,220
2016-07-15T07:04:02.686Z,245
2016-07-15T07:05:02.627Z,270
2016-07-15T07:06:04.027Z,270
2016-07-15T07:07:03.308Z,230
2016-07-15T07:08:01.897Z,225
2016-07-15T07:09:02.586Z,215
2016-07-15T07:10:02.589Z,200
2016-07-15T07:11:03.279Z,235
2016-07-15T07:12:03.265Z,220
2016-07-15T07:13:02.542Z,230
2016-07-15T07:14:03.251Z,240
2016-07-15T07:15:03.232Z,250
2016-07-15T07:16:02.525Z,300
2016-07-15T07:17:03.218Z,290
2016-07-15T07:18:03.204Z,275
2016-07-15T07:19:03.198Z,255
2016-07-15T07:20:03.181Z,215
2016-07-15T07:21:03.174Z,250
2016-07-15T07:22:02.465Z,190
2016-07-15T07:23:02.448Z,150
2016-07-15T07:24:03.140Z,195
2016-07-15T07:25:03.135Z,205
2016-07-15T07:26:01.714Z,145
2016-07-15T07:27:03.117Z,175
2016-07-15T07:28:03.116Z,210
2016-07-15T07:29:01.680Z,220
2016-07-15T07:30:03.083Z,190
2016-07-15T07:31:03.777Z,190
2016-07-15T07:32:03.064Z,230
2016-07-15T07:33:02.349Z,300
2016-07-15T07:34:02.346Z,450
2016-07-15T07:35:02.332Z,995
2016-07-15T07:36:02.322Z,1240
2016-07-15T07:37:03.010Z,1620
2016-07-15T07:38:03.007Z,285
2016-07-15T07:39:02.311Z,260
2016-07-15T07:40:02.996Z,185
2016-07-15T07:41:02.975Z,195
2016-07-15T07:42:02.970Z,175
2016-07-15T07:43:02.261Z,195
2016-07-15T07:44:04.368Z,195
2016-07-15T07:45:02.243Z,225
2016-07-15T07:46:02.935Z,155
2016-07-15T07:47:02.926Z,195
2016-07-15T07:48:02.914Z,255
2016-07-15T07:49:02.212Z,240
2016-07-15T07:50:02.891Z,230
2016-07-15T07:51:02.184Z,1625
2016-07-15T07:52:01.474Z,1250
2016-07-15T07:53:02.169Z,655
2016-07-15T07:54:02.158Z,1510
2016-07-15T07:55:01.440Z,1505
2016-07-15T07:56:02.849Z,1570
2016-07-15T07:57:01.426Z,1700
2016-07-15T07:58:02.835Z,1640
2016-07-15T07:59:03.525Z,1600
2016-07-15T08:00:02.113Z,1655
2016-07-15T08:01:02.808Z,1675
2016-07-15T08:02:02.099Z,1690
2016-07-15T08:03:02.081Z,1700
2016-07-15T08:04:02.090Z,1700
2016-07-15T08:05:02.078Z,1575
2016-07-15T08:06:02.785Z,215
2016-07-15T08:07:01.360Z,180
2016-07-15T08:08:01.358Z,400
2016-07-15T08:09:02.056Z,1615
2016-07-15T08:10:02.766Z,590
2016-07-15T08:11:01.346Z,275
2016-07-15T08:12:02.744Z,245
2016-07-15T08:13:01.327Z,265
2016-07-15T08:14:04.145Z,190
2016-07-15T08:15:03.434Z,120
2016-07-15T08:16:02.725Z,115
2016-07-15T08:17:02.721Z,110
2016-07-15T08:18:01.305Z,95
2016-07-15T08:19:01.297Z,110
2016-07-15T08:20:02.695Z,165
2016-07-15T08:21:01.985Z,215
2016-07-15T08:22:03.389Z,220
2016-07-15T08:23:02.682Z,1705
2016-07-15T08:24:01.961Z,520
2016-07-15T08:25:01.960Z,1895
2016-07-15T08:26:01.958Z,1865
2016-07-15T08:27:02.644Z,1885
2016-07-15T08:28:02.648Z,1895
2016-07-15T08:29:01.926Z,1890
2016-07-15T08:30:02.131Z,1860
2016-07-15T08:31:01.919Z,1895
2016-07-15T08:32:01.202Z,1975
2016-07-15T08:33:01.916Z,2050
2016-07-15T08:34:01.896Z,2020
2016-07-15T08:35:03.312Z,2015
2016-07-15T08:36:01.188Z,1885
2016-07-15T08:37:02.599Z,2050
2016-07-15T08:38:02.594Z,2050
2016-07-15T08:39:02.597Z,965
2016-07-15T08:40:01.176Z,240
2016-07-15T08:41:01.162Z,315
2016-07-15T08:42:01.161Z,210
2016-07-15T08:43:01.873Z,1145
2016-07-15T08:44:01.865Z,1475
2016-07-15T08:45:02.563Z,355
2016-07-15T08:46:01.859Z,1700
2016-07-15T08:47:03.273Z,1890
2016-07-15T08:48:01.156Z,2085
2016-07-15T08:49:01.839Z,575
2016-07-15T08:50:03.962Z,360
2016-07-15T08:51:03.254Z,410
2016-07-15T08:52:01.832Z,240
2016-07-15T08:53:03.250Z,250
2016-07-15T08:54:03.237Z,375
2016-07-15T08:55:02.531Z,265
2016-07-15T08:56:02.520Z,240
2016-07-15T08:57:01.103Z,230
2016-07-15T08:58:03.220Z,200
2016-07-15T08:59:02.524Z,145
2016-07-15T09:00:01.793Z,115
2016-07-15T09:01:01.797Z,95
2016-07-15T09:02:01.780Z,105
2016-07-15T09:03:01.775Z,130
2016-07-15T09:04:02.478Z,220
2016-07-15T09:05:02.477Z,315
2016-07-15T09:06:02.469Z,360
2016-07-15T09:07:01.039Z,655
2016-07-15T09:08:03.156Z,425
2016-07-15T09:09:01.733Z,600
2016-07-15T09:10:03.146Z,490
2016-07-15T09:11:01.732Z,1255
2016-07-15T09:12:02.417Z,865
2016-07-15T09:13:03.123Z,1155
2016-07-15T09:14:02.414Z,1755
2016-07-15T09:15:02.401Z,945
2016-07-15T09:16:03.107Z,1845
2016-07-15T09:17:03.109Z,1930
2016-07-15T09:18:00.974Z,2160
2016-07-15T09:19:02.381Z,1590
2016-07-15T09:20:01.668Z,240
2016-07-15T09:21:02.374Z,230
2016-07-15T09:22:02.366Z,245
2016-07-15T09:23:02.365Z,365
2016-07-15T09:24:02.357Z,235
2016-07-15T09:25:02.351Z,225
2016-07-15T09:26:01.643Z,325
2016-07-15T09:27:03.100Z,390
2016-07-15T09:28:00.922Z,350
2016-07-15T09:29:02.329Z,400
2016-07-15T09:30:01.676Z,2010
2016-07-15T09:31:03.741Z,740
2016-07-15T09:32:01.619Z,225
2016-07-15T09:33:01.592Z,160
2016-07-15T09:34:01.650Z,180
2016-07-15T09:35:00.875Z,220
2016-07-15T09:36:02.994Z,230
2016-07-15T09:37:02.331Z,230
2016-07-15T09:38:02.280Z,250
2016-07-15T09:39:01.562Z,500
2016-07-15T09:40:02.259Z,330
2016-07-15T09:41:01.554Z,370
2016-07-15T09:42:01.537Z,2220
2016-07-15T09:43:02.240Z,660
2016-07-15T09:44:02.252Z,1935
2016-07-15T09:45:01.522Z,2170
2016-07-15T09:46:01.516Z,2185
2016-07-15T09:47:00.813Z,2235
2016-07-15T09:48:01.504Z,2195
2016-07-15T09:50:00.786Z,1040
2016-07-15T09:51:02.199Z,585
2016-07-15T09:52:01.484Z,1670
2016-07-15T09:53:02.184Z,390
2016-07-15T09:54:01.467Z,1780
2016-07-15T09:55:01.470Z,300
2016-07-15T09:56:01.464Z,220
2016-07-15T09:57:01.464Z,185
2016-07-15T09:58:01.454Z,140
2016-07-15T09:59:03.567Z,160
2016-07-15T10:00:02.155Z,185
2016-07-15T10:01:02.150Z,270
2016-07-15T10:02:02.147Z,635
2016-07-15T10:03:02.141Z,1485
2016-07-15T10:04:02.130Z,880
2016-07-15T10:05:02.132Z,315
2016-07-15T10:06:02.928Z,340
2016-07-15T10:07:01.428Z,270
2016-07-15T10:08:02.120Z,450
2016-07-15T10:09:02.108Z,375
2016-07-15T10:10:02.097Z,660
2016-07-15T10:11:02.811Z,505
2016-07-15T10:12:01.377Z,480
2016-07-15T10:13:02.799Z,1265
2016-07-15T10:14:00.662Z,2265
2016-07-15T10:15:01.362Z,2090
2016-07-15T10:16:01.365Z,1315
2016-07-15T10:17:01.350Z,580
2016-07-15T10:18:01.345Z,1130
2016-07-15T10:19:01.359Z,615
2016-07-15T10:20:01.340Z,1050
2016-07-15T10:21:02.047Z,1350
2016-07-15T10:22:02.037Z,785
2016-07-15T10:23:00.620Z,320
2016-07-15T10:24:01.322Z,255
2016-07-15T10:25:01.314Z,290
2016-07-15T10:26:02.013Z,330
2016-07-15T10:27:02.020Z,370
2016-07-15T10:28:01.297Z,375
2016-07-15T10:29:01.354Z,345
2016-07-15T10:30:01.500Z,270
2016-07-15T10:31:01.990Z,215
2016-07-15T10:32:01.989Z,210
2016-07-15T10:33:00.568Z,215
2016-07-15T10:34:01.978Z,225
2016-07-15T10:35:01.272Z,300
2016-07-15T10:36:01.253Z,595
2016-07-15T10:37:00.545Z,380
2016-07-15T10:38:02.660Z,1450
2016-07-15T10:39:01.944Z,450
2016-07-15T10:40:02.873Z,1720
2016-07-15T10:41:01.227Z,765
2016-07-15T10:42:01.227Z,1660
2016-07-15T10:43:03.388Z,1440
2016-07-15T10:44:01.258Z,535
2016-07-15T10:45:01.904Z,460
2016-07-15T10:46:01.900Z,645
2016-07-15T10:47:01.900Z,620
2016-07-15T10:48:01.891Z,385
2016-07-15T10:49:01.889Z,420
2016-07-15T10:50:01.180Z,520
2016-07-15T10:51:01.169Z,480
2016-07-15T10:52:00.456Z,840
2016-07-15T10:53:01.162Z,380
2016-07-15T10:54:01.142Z,785
2016-07-15T10:56:01.134Z,980
2016-07-15T10:57:01.843Z,1360
2016-07-15T10:58:01.125Z,760
2016-07-15T10:59:01.828Z,1120
2016-07-15T11:00:01.825Z,715
2016-07-15T11:01:01.819Z,390
2016-07-15T11:02:01.814Z,375
2016-07-15T11:03:01.099Z,350
2016-07-15T11:04:00.383Z,370
2016-07-15T11:05:01.085Z,395
2016-07-15T11:06:01.798Z,2005
2016-07-15T11:07:01.081Z,2445
2016-07-15T11:08:01.074Z,915
2016-07-15T11:09:01.765Z,2385
2016-07-15T11:10:01.765Z,2545
2016-07-15T11:11:01.763Z,2530
2016-07-15T11:12:01.755Z,2555
2016-07-15T11:13:01.752Z,1805
2016-07-15T11:14:01.041Z,2400
2016-07-15T11:15:01.741Z,1820
2016-07-15T11:16:02.451Z,2420
2016-07-15T11:17:02.445Z,2525
2016-07-15T11:18:01.030Z,1525
2016-07-15T11:19:01.027Z,1015
2016-07-15T11:20:01.031Z,2435
2016-07-15T11:21:00.324Z,1625
2016-07-15T11:22:01.021Z,560
2016-07-15T11:23:01.726Z,1290
2016-07-15T11:24:01.736Z,2340
2016-07-15T11:25:01.014Z,995
2016-07-15T11:26:01.720Z,2610
2016-07-15T11:27:01.023Z,2375
2016-07-15T11:28:00.300Z,695
2016-07-15T11:29:01.013Z,2115
2016-07-15T11:30:01.017Z,570
2016-07-15T11:31:01.006Z,1975
2016-07-15T11:32:01.717Z,810
2016-07-15T11:33:00.313Z,1810
2016-07-15T11:34:02.426Z,2510
2016-07-15T11:35:01.715Z,2525
2016-07-15T11:36:01.714Z,690
2016-07-15T11:37:01.722Z,620
2016-07-15T11:38:01.061Z,2290
2016-07-15T11:39:01.001Z,2050
2016-07-15T11:40:01.712Z,2110
2016-07-15T11:41:00.297Z,505
2016-07-15T11:42:01.003Z,410
2016-07-15T11:43:01.007Z,415
2016-07-15T11:44:01.721Z,2370
2016-07-15T11:45:00.290Z,570
2016-07-15T11:46:01.007Z,2250
2016-07-15T11:47:02.414Z,315
2016-07-15T11:48:01.700Z,1665
2016-07-15T11:49:01.056Z,2180
2016-07-15T11:50:01.002Z,2350
2016-07-15T11:51:01.021Z,1815
2016-07-15T11:52:00.298Z,2170
2016-07-15T11:53:01.703Z,2410
2016-07-15T11:54:01.047Z,2390
2016-07-15T11:55:00.989Z,995
2016-07-15T11:56:01.707Z,2555
2016-07-15T11:57:01.698Z,2520
2016-07-15T11:58:02.419Z,1240
2016-07-15T11:59:00.309Z,1305
2016-07-15T12:00:02.438Z,2330
2016-07-15T12:01:01.002Z,2360
2016-07-15T12:02:01.706Z,1180
2016-07-15T12:03:02.419Z,2280
2016-07-15T12:04:00.301Z,2140
2016-07-15T12:05:01.714Z,1165
2016-07-15T12:06:00.299Z,1075
2016-07-15T12:07:02.428Z,580
2016-07-15T12:08:00.294Z,335
2016-07-15T12:09:01.014Z,240
2016-07-15T12:10:01.011Z,255
2016-07-15T12:11:01.191Z,360
2016-07-15T12:12:00.299Z,735
2016-07-15T12:13:01.713Z,255
2016-07-15T12:14:01.704Z,260
2016-07-15T12:15:01.007Z,300
2016-07-15T12:16:01.716Z,335
2016-07-15T12:17:00.997Z,360
2016-07-15T12:18:01.000Z,395
2016-07-15T12:19:02.415Z,330
2016-07-15T12:20:01.708Z,300
2016-07-15T12:21:00.999Z,310
2016-07-15T12:22:01.707Z,350
2016-07-15T12:23:00.985Z,415
2016-07-15T12:24:01.694Z,475
2016-07-15T12:25:01.745Z,2280
2016-07-15T12:26:00.985Z,2305
2016-07-15T12:27:02.395Z,2260
2016-07-15T12:28:01.690Z,1910
2016-07-15T12:29:00.260Z,690
2016-07-15T12:30:01.184Z,645
2016-07-15T12:31:01.022Z,530
2016-07-15T12:32:00.969Z,590
2016-07-15T12:33:01.676Z,1000
2016-07-15T12:34:02.374Z,480
2016-07-15T12:35:00.244Z,435
2016-07-15T12:36:01.880Z,435
2016-07-15T12:37:01.647Z,465
2016-07-15T12:38:01.671Z,410
2016-07-15T12:39:00.234Z,405
2016-07-15T12:40:01.651Z,350
2016-07-15T12:41:00.947Z,290
2016-07-15T12:42:00.925Z,255
2016-07-15T12:43:00.928Z,200
2016-07-15T12:44:01.632Z,155
2016-07-15T12:45:01.622Z,125
2016-07-15T12:46:01.621Z,120
2016-07-15T12:47:01.620Z,125
2016-07-15T12:48:00.909Z,140
2016-07-15T12:49:00.903Z,160
2016-07-15T12:50:02.315Z,210
2016-07-15T12:51:01.598Z,385
2016-07-15T12:52:02.303Z,515
2016-07-15T12:53:02.390Z,1115
2016-07-15T12:54:00.885Z,2210
2016-07-15T12:55:01.583Z,2145
2016-07-15T12:56:01.565Z,2065
2016-07-15T12:57:02.275Z,2035
2016-07-15T12:58:01.586Z,1990
2016-07-15T12:59:01.565Z,1390
2016-07-15T13:00:01.556Z,2040
2016-07-15T13:01:01.555Z,900
2016-07-15T13:02:01.550Z,785
2016-07-15T13:03:00.839Z,1080
2016-07-15T13:04:02.254Z,1155
2016-07-15T13:05:01.565Z,1090
2016-07-15T13:06:00.828Z,1090
2016-07-15T13:07:00.836Z,825
2016-07-15T13:08:00.872Z,520
2016-07-15T13:09:03.168Z,415
2016-07-15T13:10:02.955Z,355
2016-07-15T13:11:02.234Z,305
2016-07-15T13:12:00.819Z,285
2016-07-15T13:13:01.555Z,290
2016-07-15T13:14:00.817Z,325
2016-07-15T13:15:01.526Z,505
2016-07-15T13:16:00.800Z,595
2016-07-15T13:17:00.805Z,1815
2016-07-15T13:18:00.798Z,1945
2016-07-15T13:19:02.205Z,1875
2016-07-15T13:20:00.785Z,1985
2016-07-15T13:21:02.906Z,1665
2016-07-15T13:22:00.783Z,560
2016-07-15T13:23:00.772Z,490
2016-07-15T13:24:02.203Z,425
2016-07-15T13:25:00.784Z,440
2016-07-15T13:26:00.767Z,445
2016-07-15T13:27:02.186Z,460
2016-07-15T13:28:02.896Z,460
2016-07-15T13:29:02.184Z,1155
2016-07-15T13:30:01.467Z,1555
2016-07-15T13:31:00.043Z,1425
2016-07-15T13:32:02.873Z,1670
2016-07-15T13:33:00.744Z,1555
2016-07-15T13:34:01.469Z,1320
2016-07-15T13:35:02.170Z,1390
2016-07-15T13:36:01.444Z,520
2016-07-15T13:37:01.445Z,430
2016-07-15T13:38:01.439Z,395
2016-07-15T13:39:01.439Z,360
2016-07-15T13:40:00.747Z,325
2016-07-15T13:41:00.742Z,290
2016-07-15T13:42:02.135Z,255
2016-07-15T13:43:01.426Z,240
2016-07-15T13:44:00.006Z,235
2016-07-15T13:45:00.702Z,250
2016-07-15T13:46:01.408Z,275
2016-07-15T13:47:01.403Z,390
2016-07-15T13:47:59.983Z,1375
2016-07-15T13:49:01.393Z,1465
2016-07-15T13:50:01.398Z,1500
2016-07-15T13:50:59.972Z,1480
2016-07-15T13:52:00.686Z,1400
2016-07-15T13:53:02.125Z,1280
2016-07-15T13:54:02.089Z,1175
2016-07-15T13:55:02.075Z,1385
2016-07-15T13:55:59.954Z,1525
2016-07-15T13:57:02.070Z,1480
2016-07-15T13:57:59.950Z,1405
2016-07-15T13:59:00.645Z,925
2016-07-15T14:00:01.356Z,1450
2016-07-15T14:01:02.818Z,1515
2016-07-15T14:01:59.936Z,1560
2016-07-15T14:03:02.051Z,1225